Time;durP1;ratioP1;P1;durP2;ratioP2;P2;SDS_P1;SDS_P2;PMS_P1;PMS_P2;Temp;Humidity;BMP_temperature;BMP_pressure;BME280_temperature;BME280_humidity;BME280_pressure;Samples;Min_cycle;Max_cycle;Signal;HPM_P1;HPM_P2
2021/10/02 02:14:14;;;;;;;2.64;1.15;;;;;;;12.10;93.14;99238.38;2201629;72;20218;31
2021/10/02 02:17:21;;;;;;;1.14;0.60;;;;;;;12.12;93.26;99234.00;1967665;82;995338;-79
2021/10/02 02:20:47;;;;;;;3.11;0.54;;;;;;;12.11;93.18;99224.47;1978389;82;20184;-81
2021/10/02 02:23:50;;;;;;;1.38;0.60;;;;;;;12.14;93.16;99227.03;1980356;82;20148;-81
2021/10/02 02:26:55;;;;;;;2.61;0.80;;;;;;;12.15;92.94;99230.50;1983514;82;20188;-81
2021/10/02 02:30:03;;;;;;;;;;;;;;;12.18;92.82;99235.66;1977703;82;20156;-81
2021/10/02 02:33:14;;;;;;;1.77;0.50;;;;;;;12.20;92.70;99229.56;1980751;82;20011;-81
2021/10/02 02:36:31;;;;;;;1.41;0.55;;;;;;;12.22;92.45;99226.97;1976815;83;20174;-82
2021/10/02 02:39:55;;;;;;;2.56;0.70;;;;;;;12.25;92.55;99222.56;1980354;82;20139;-82
2021/10/02 02:43:12;;;;;;;1.25;0.60;;;;;;;12.24;92.38;99213.03;1979382;82;20254;-81
2021/10/02 02:46:32;;;;;;;0.93;0.70;;;;;;;12.25;92.15;99206.09;1981304;82;20129;-81
2021/10/02 02:50:11;;;;;;;0.75;0.51;;;;;;;12.26;91.99;99208.66;1977303;82;20181;-82
2021/10/02 02:53:31;;;;;;;2.50;0.59;;;;;;;12.27;91.94;99201.72;1986577;82;20248;-81
2021/10/02 02:56:50;;;;;;;1.89;0.59;;;;;;;12.30;91.79;99201.66;1982007;82;20132;-82
2021/10/02 03:00:07;;;;;;;2.54;0.50;;;;;;;12.28;91.69;99201.69;1978401;82;20188;-81
2021/10/02 03:03:13;;;;;;;2.03;0.82;;;;;;;12.26;91.61;99200.84;1978261;82;768437;-81
2021/10/02 03:06:20;;;;;;;1.69;0.55;;;;;;;12.26;91.28;99203.44;1984761;82;20168;-80
2021/10/02 03:09:24;;;;;;;2.76;0.80;;;;;;;12.26;91.03;99198.25;1984079;82;20205;-81
2021/10/02 03:12:37;;;;;;;2.08;0.59;;;;;;;12.26;90.84;99200.00;1977635;82;20187;-81
2021/10/02 03:15:41;;;;;;;1.85;0.61;;;;;;;12.28;90.83;99201.69;1980586;80;48746;-79
2021/10/02 03:18:48;;;;;;;1.58;0.60;;;;;;;12.28;90.76;99206.03;1978410;83;20158;-81
2021/10/02 03:21:53;;;;;;;1.29;0.51;;;;;;;12.30;90.88;99205.13;1970354;83;20159;-81
2021/10/02 03:25:03;;;;;;;1.67;0.56;;;;;;;12.31;90.80;99206.84;1969324;82;20133;-80
2021/10/02 03:28:07;;;;;;;0.91;0.50;;;;;;;12.33;90.65;99199.88;1975335;83;20154;-80
2021/10/02 03:31:10;;;;;;;1.34;0.60;;;;;;;12.34;90.70;99201.59;1971530;83;20160;-81
2021/10/02 03:34:15;;;;;;;1.85;0.89;;;;;;;12.35;90.75;99205.06;1985630;83;20254;-80
2021/10/02 03:37:22;;;;;;;1.64;0.60;;;;;;;12.35;90.55;99200.69;1973379;83;20165;-81
2021/10/02 03:40:26;;;;;;;0.75;0.50;;;;;;;12.36;90.25;99196.34;1973075;83;20184;-81
2021/10/02 03:43:32;;;;;;;1.38;0.60;;;;;;;12.34;89.95;99185.09;1972509;83;20149;-81
2021/10/02 03:46:36;;;;;;;3.24;0.60;;;;;;;12.34;90.02;99174.69;1978479;83;20137;-81
2021/10/02 03:49:40;;;;;;;2.61;0.60;;;;;;;12.34;90.18;99174.69;1978461;83;20150;-80
2021/10/02 03:52:43;;;;;;;3.19;0.94;;;;;;;12.35;90.05;99179.00;1974665;83;20173;-81
2021/10/02 03:55:46;;;;;;;4.18;0.80;;;;;;;12.34;89.67;99177.28;1971003;83;20235;-80
2021/10/02 03:58:50;;;;;;;1.31;0.60;;;;;;;12.34;89.46;99178.16;1975036;83;20160;-81
2021/10/02 04:02:01;;;;;;;5.65;0.60;;;;;;;12.32;89.42;99176.47;1976769;83;20162;-81
2021/10/02 04:05:05;;;;;;;2.80;0.68;;;;;;;12.34;89.55;99178.16;1978906;83;20149;-80
2021/10/02 04:08:10;;;;;;;2.17;0.80;;;;;;;12.36;89.70;99175.53;1977889;83;20182;-80
2021/10/02 04:11:12;;;;;;;1.92;1.06;;;;;;;12.34;89.60;99170.34;1979825;83;20256;-80
2021/10/02 04:14:15;;;;;;;1.10;0.70;;;;;;;12.32;89.50;99166.06;1979034;83;20133;-81
2021/10/02 04:17:20;;;;;;;2.49;0.70;;;;;;;12.32;89.44;99153.88;1970983;83;760487;-81
2021/10/02 04:20:36;;;;;;;1.61;0.86;;;;;;;12.34;89.37;99169.47;1982020;83;20144;-81
2021/10/02 04:23:53;;;;;;;1.20;0.61;;;;;;;12.32;89.25;99163.44;1984713;83;20160;-81
2021/10/02 04:26:59;;;;;;;2.11;0.70;;;;;;;12.32;89.30;99159.09;1979981;82;20132;-80
2021/10/02 04:30:02;;;;;;;2.51;0.99;;;;;;;12.31;89.10;99162.59;1984739;83;20265;-80
2021/10/02 04:33:05;;;;;;;1.45;0.60;;;;;;;12.35;89.16;99169.47;1987317;80;37133;-81
2021/10/02 04:36:08;;;;;;;2.85;0.70;;;;;;;12.34;89.27;99167.75;1982813;82;20129;-81
2021/10/02 04:39:31;;;;;;;3.04;0.74;;;;;;;12.33;88.93;99168.63;1973264;83;20188;-81
2021/10/02 04:42:53;;;;;;;1.66;0.70;;;;;;;12.34;88.85;99166.88;1976743;83;20152;-80
2021/10/02 04:46:41;;;;;;;2.00;0.88;;;;;;;12.35;88.98;99171.19;1980176;82;20152;-81
2021/10/02 04:50:33;;;;;;;2.81;0.64;;;;;;;12.30;89.54;99165.22;1969392;82;20200;-82
2021/10/02 04:54:12;;;;;;;2.47;0.70;;;;;;;12.33;89.91;99152.16;1973991;82;20270;-82
2021/10/02 04:58:17;;;;;;;1.76;0.74;;;;;;;12.32;90.49;99143.47;1974959;82;20166;-82
2021/10/02 05:02:17;;;;;;;1.13;0.55;;;;;;;12.34;89.85;99140.84;1977762;80;20294;-81
2021/10/02 05:06:33;;;;;;;2.17;0.65;;;;;;;12.34;89.27;99139.09;1974625;82;20180;-81
2021/10/02 05:10:29;;;;;;;1.76;0.99;;;;;;;12.35;89.03;99142.56;1974170;82;20256;-81
2021/10/02 05:14:09;;;;;;;1.31;0.68;;;;;;;12.35;89.06;99139.97;1977400;82;20156;-81
2021/10/02 05:17:47;;;;;;;1.93;0.84;;;;;;;12.36;89.59;99133.88;1964326;82;609054;-81
2021/10/02 05:21:58;;;;;;;2.45;0.69;;;;;;;12.35;90.01;99132.16;1980172;82;20335;-80
2021/10/02 05:26:13;;;;;;;2.00;0.70;;;;;;;12.33;89.42;99142.59;1986460;82;20144;-81
2021/10/02 05:30:04;;;;;;;1.39;0.76;;;;;;;12.37;89.04;99133.84;1978408;82;20162;-81
2021/10/02 05:33:22;;;;;;;2.17;0.66;;;;;;;12.36;89.24;99137.31;1977181;82;20156;-81
2021/10/02 05:36:45;;;;;;;1.20;0.80;;;;;;;12.33;88.91;99129.56;1971310;82;20250;-81
2021/10/02 05:40:23;;;;;;;1.90;0.64;;;;;;;12.30;88.33;99142.63;1978488;83;20242;-81
2021/10/02 05:43:49;;;;;;;4.36;0.82;;;;;;;12.28;88.30;99146.16;1975703;82;20262;-82
2021/10/02 05:47:44;;;;;;;1.36;0.70;;;;;;;12.26;88.34;99148.78;1971965;82;699513;-80
2021/10/02 05:51:02;;;;;;;1.33;0.70;;;;;;;12.28;88.16;99139.22;1980626;82;20148;-81
2021/10/02 05:54:44;;;;;;;3.50;0.71;;;;;;;12.27;88.26;99136.63;1977496;82;20158;-85
2021/10/02 05:58:29;;;;;;;1.31;0.64;;;;;;;12.23;88.09;99147.97;1974634;82;20358;-83
2021/10/02 06:01:55;;;;;;;2.26;0.71;;;;;;;12.22;88.29;99154.06;1976168;82;20242;-83
2021/10/02 06:05:27;;;;;;;1.76;0.90;;;;;;;12.22;88.19;99151.47;1974710;82;20234;-82
2021/10/02 06:09:17;;;;;;;2.65;0.71;;;;;;;12.22;88.00;99157.53;1978139;82;20252;-83
2021/10/02 06:12:57;;;;;;;3.46;1.21;;;;;;;12.25;88.01;99147.06;1969540;82;20238;-83
2021/10/02 06:16:58;;;;;;;2.14;0.81;;;;;;;12.29;88.26;99140.94;1984464;82;20148;-82
2021/10/02 06:21:11;;;;;;;2.39;0.80;;;;;;;12.34;88.57;99125.22;1964943;83;20141;-82
2021/10/02 06:25:06;;;;;;;1.96;0.75;;;;;;;12.35;88.64;99129.53;1974178;83;20273;-83
2021/10/02 06:28:45;;;;;;;1.25;0.70;;;;;;;12.38;88.39;99129.50;1968394;82;20208;-82
2021/10/02 06:50:09;;;;;;;2.85;0.93;;;;;;;12.52;87.02;99139.69;1991067;82;20203;-83
2021/10/02 06:54:34;;;;;;;2.20;0.71;;;;;;;12.52;86.67;99131.88;1980591;82;20245;-86
2021/10/02 06:58:56;;;;;;;1.99;0.76;;;;;;;12.65;86.55;99125.59;1957057;83;20214;-85
2021/10/02 17:01:12;;;;;;;2.09;0.81;;;;;;;17.74;63.72;98351.94;2188784;72;21336;-80
2021/10/02 17:05:04;;;;;;;1.80;0.93;;;;;;;17.59;64.54;98348.25;1986550;82;20196;-80
2021/10/02 17:37:36;;;;;;;3.35;1.90;;;;;;;17.06;66.00;98322.88;2076804;72;20232;-81
2021/10/02 17:40:41;;;;;;;1.63;1.46;;;;;;;17.03;66.12;98316.91;1986858;82;20155;-82
2021/10/02 17:44:01;;;;;;;3.81;1.67;;;;;;;17.05;66.20;98315.06;1991086;82;20147;-82
2021/10/02 20:35:16;;;;;;;4.19;2.67;;;;;;;16.41;81.97;98200.97;2068427;72;20218;-82
2021/10/02 21:42:53;;;;;;;8.41;2.46;;;;;;;16.85;72.34;98129.84;2215795;71;20224;-78
2021/10/02 21:45:56;;;;;;;3.04;1.80;;;;;;;16.87;72.16;98120.97;1989242;82;20143;-80
2021/10/02 21:48:59;;;;;;;2.69;1.91;;;;;;;16.85;72.81;98114.13;1986773;82;20178;-80
2021/10/02 21:52:02;;;;;;;2.49;1.73;;;;;;;16.88;72.23;98116.63;1992806;82;20131;-80
